Time;durP1;ratioP1;P1;durP2;ratioP2;P2;SDS_P1;SDS_P2;PMS_P1;PMS_P2;Temp;Humidity;BMP_temperature;BMP_pressure;BME280_temperature;BME280_humidity;BME280_pressure;Samples;Min_cycle;Max_cycle;Signal;HPM_P1;HPM_P2
2024/01/30 00:01:17;;;;;;;20.00;12.60;;;;;;;8.15;51.58;104131.15;106653;1270;25312;-53
2024/01/30 00:03:45;;;;;;;19.90;12.70;;;;;;;8.12;51.69;104133.43;106836;1260;25349;-54
2024/01/30 00:06:12;;;;;;;19.70;14.00;;;;;;;8.09;51.74;104135.37;106857;1257;25443;-54
2024/01/30 00:08:39;;;;;;;19.20;13.50;;;;;;;8.05;51.76;104140.25;107107;1266;25346;-54
2024/01/30 00:11:07;;;;;;;20.10;14.00;;;;;;;8.02;51.87;104141.49;106168;1267;1003616;-54
2024/01/30 00:13:34;;;;;;;20.30;14.80;;;;;;;8.00;52.11;104143.13;107152;1259;22534;-52
2024/01/30 00:16:01;;;;;;;23.20;15.20;;;;;;;7.98;52.15;104141.82;106291;1255;1015992;-53
2024/01/30 00:18:29;;;;;;;23.30;15.60;;;;;;;7.96;52.02;104141.37;107086;1264;25349;-54
2024/01/30 00:20:56;;;;;;;24.50;16.40;;;;;;;7.89;51.83;104143.85;106857;1260;25328;-53
2024/01/30 00:23:23;;;;;;;26.30;17.00;;;;;;;7.81;51.90;104145.03;106935;1257;25440;-53
2024/01/30 00:25:50;;;;;;;26.40;17.00;;;;;;;7.73;52.00;104144.54;107103;1256;22627;-53
2024/01/30 00:28:17;;;;;;;23.80;16.50;;;;;;;7.67;52.14;104142.20;106615;1263;1003311;-53
2024/01/30 00:30:44;;;;;;;23.40;16.40;;;;;;;7.64;52.07;104138.94;107221;1252;25388;-53
2024/01/30 00:33:11;;;;;;;24.20;17.20;;;;;;;7.62;52.11;104142.14;107276;1263;25478;-53
2024/01/30 00:35:39;;;;;;;20.70;16.10;;;;;;;7.58;52.03;104139.88;107160;1264;25346;-54
2024/01/30 00:38:07;;;;;;;22.10;15.50;;;;;;;7.55;51.89;104144.40;107098;1255;22744;-53
2024/01/30 00:40:34;;;;;;;21.30;15.90;;;;;;;7.53;52.09;104142.06;107115;1251;22637;-53
2024/01/30 00:43:02;;;;;;;25.50;17.90;;;;;;;7.46;51.74;104139.67;107058;1263;25468;-53
2024/01/30 00:45:29;;;;;;;23.00;16.10;;;;;;;7.38;51.92;104138.77;106103;1273;1003357;-53
2024/01/30 00:47:56;;;;;;;25.70;16.20;;;;;;;7.31;51.97;104138.48;106807;1272;24241;-53
2024/01/30 00:50:23;;;;;;;22.70;16.30;;;;;;;7.27;52.03;104140.55;106971;1267;25283;-53
2024/01/30 00:52:50;;;;;;;25.20;17.40;;;;;;;7.21;52.09;104136.63;106419;1254;1002869;-54
2024/01/30 00:55:17;;;;;;;24.20;16.20;;;;;;;7.15;52.17;104132.23;107102;1265;25344;-53
2024/01/30 00:57:45;;;;;;;25.40;17.60;;;;;;;7.11;52.27;104126.52;107104;1266;23298;-54
2024/01/30 01:00:16;;;;;;;25.80;16.50;;;;;;;7.07;52.35;104127.69;106374;1257;1003712;-54
2024/01/30 01:02:44;;;;;;;26.10;17.60;;;;;;;7.01;52.18;104127.40;107182;1251;22984;-54
2024/01/30 01:05:11;;;;;;;23.70;17.00;;;;;;;6.94;52.32;104126.77;106131;1257;1003750;-55
2024/01/30 01:07:40;;;;;;;25.60;17.30;;;;;;;6.89;52.41;104129.92;106833;1269;25327;-53
2024/01/30 01:10:08;;;;;;;25.80;17.40;;;;;;;6.84;52.57;104130.23;107047;1255;25328;-53
2024/01/30 01:12:35;;;;;;;26.10;17.50;;;;;;;6.81;52.67;104128.04;107073;1255;25341;-52
2024/01/30 01:15:03;;;;;;;23.80;17.60;;;;;;;6.79;52.78;104129.30;106389;1257;1003673;-53
2024/01/30 01:17:31;;;;;;;25.30;17.10;;;;;;;6.76;52.84;104125.88;106863;1258;25386;-53
2024/01/30 01:19:58;;;;;;;28.70;17.00;;;;;;;6.73;52.82;104122.62;106336;1264;1002919;-53
2024/01/30 01:22:25;;;;;;;24.50;17.00;;;;;;;6.69;52.78;104124.35;107032;1254;22982;-53
2024/01/30 01:24:52;;;;;;;21.60;16.30;;;;;;;6.66;52.91;104126.27;106373;1257;1003048;-54
2024/01/30 01:27:19;;;;;;;21.90;15.40;;;;;;;6.64;52.92;104133.08;107040;1254;25356;-54
2024/01/30 01:29:46;;;;;;;23.90;17.30;;;;;;;6.64;53.28;104132.35;107075;1255;25343;-53
2024/01/30 01:32:13;;;;;;;24.10;16.30;;;;;;;6.62;53.23;104128.84;106399;1258;1003681;-53
2024/01/30 01:34:40;;;;;;;23.40;17.20;;;;;;;6.61;53.17;104125.17;107107;1252;24184;-53
2024/01/30 01:37:08;;;;;;;24.10;16.40;;;;;;;6.60;53.18;104124.09;106949;1267;25357;-53
2024/01/30 01:39:35;;;;;;;24.30;17.30;;;;;;;6.57;53.21;104125.00;106888;1270;25328;-53
2024/01/30 01:42:02;;;;;;;23.90;16.70;;;;;;;6.55;53.11;104122.98;106864;1267;25328;-53
2024/01/30 01:44:30;;;;;;;22.50;15.90;;;;;;;6.51;53.33;104122.98;107118;1250;25328;-54
2024/01/30 01:46:57;;;;;;;22.70;15.40;;;;;;;6.50;53.19;104123.25;107101;1257;25327;-54
2024/01/30 01:49:24;;;;;;;22.60;15.90;;;;;;;6.47;53.27;104122.77;106369;1254;1002844;-53
2024/01/30 01:51:52;;;;;;;22.60;15.70;;;;;;;6.46;53.25;104123.43;106283;1253;1003527;-55
2024/01/30 01:54:19;;;;;;;25.00;16.20;;;;;;;6.43;53.29;104122.21;107090;1253;22517;-53
2024/01/30 01:56:46;;;;;;;23.40;15.70;;;;;;;6.42;53.12;104126.16;107147;1257;25318;-53
2024/01/30 01:59:13;;;;;;;25.10;16.50;;;;;;;6.39;53.21;104120.14;106902;1257;25511;-53
2024/01/30 02:01:41;;;;;;;23.00;16.70;;;;;;;6.39;53.14;104114.95;106968;1253;25854;-53
2024/01/30 02:04:08;;;;;;;22.10;15.90;;;;;;;6.38;53.28;104118.21;107078;1254;25468;-53
2024/01/30 02:06:35;;;;;;;21.10;16.20;;;;;;;6.38;53.50;104122.66;107150;1264;25330;-52
2024/01/30 02:09:04;;;;;;;22.10;15.10;;;;;;;6.39;53.53;104123.25;107085;1260;25386;-52
2024/01/30 02:11:31;;;;;;;23.80;15.60;;;;;;;6.41;53.70;104124.54;107169;1251;25343;-54
2024/01/30 02:14:06;;;;;;;23.70;16.50;;;;;;;6.44;53.88;104128.66;107194;1256;25468;-53
2024/01/30 02:16:33;;;;;;;23.30;15.70;;;;;;;6.46;53.67;104132.02;107220;1252;25471;-53
2024/01/30 02:19:00;;;;;;;25.10;17.10;;;;;;;6.46;53.66;104131.70;106986;1260;25377;-53
2024/01/30 02:21:27;;;;;;;25.70;16.90;;;;;;;6.45;53.70;104132.15;106475;1263;1003100;-53
2024/01/30 02:23:55;;;;;;;22.00;16.30;;;;;;;6.44;53.68;104125.73;107127;1251;25318;-54
2024/01/30 02:26:22;;;;;;;24.60;16.20;;;;;;;6.44;53.66;104123.67;106447;1253;1003254;-53
2024/01/30 02:28:49;;;;;;;22.80;17.00;;;;;;;6.43;53.85;104124.98;107117;1255;25423;-54
2024/01/30 02:31:16;;;;;;;26.00;17.40;;;;;;;6.43;53.80;104129.80;107031;1253;25322;-53
2024/01/30 02:33:43;;;;;;;22.00;15.70;;;;;;;6.42;53.79;104131.70;106157;1257;1003080;-54
2024/01/30 02:36:10;;;;;;;21.70;15.80;;;;;;;6.43;53.80;104132.55;106324;1256;1003298;-53
2024/01/30 02:38:37;;;;;;;24.20;17.20;;;;;;;6.43;53.78;104126.01;107016;1257;25455;-54
2024/01/30 02:41:04;;;;;;;23.80;16.70;;;;;;;6.43;53.92;104124.83;106873;1260;25324;-53
2024/01/30 02:43:31;;;;;;;22.40;16.00;;;;;;;6.45;53.82;104121.15;106452;1255;1003187;-52
2024/01/30 02:45:59;;;;;;;23.70;16.50;;;;;;;6.46;54.00;104122.92;107196;1252;25396;-53
2024/01/30 02:48:26;;;;;;;22.50;16.20;;;;;;;6.47;53.92;104121.38;106329;1255;1003134;-53
2024/01/30 02:50:54;;;;;;;24.00;16.90;;;;;;;6.47;53.93;104124.17;106972;1259;25340;-54
2024/01/30 02:53:20;;;;;;;25.90;17.80;;;;;;;6.48;53.92;104128.88;107071;1264;22526;-53
2024/01/30 02:55:47;;;;;;;19.90;15.50;;;;;;;6.48;54.09;104121.48;107165;1251;25455;-53
2024/01/30 02:58:15;;;;;;;22.10;15.90;;;;;;;6.49;53.85;104119.77;105948;1262;1003640;-53
2024/01/30 03:00:41;;;;;;;23.30;15.80;;;;;;;6.48;53.78;104114.38;106298;1254;1003155;-53
2024/01/30 03:03:09;;;;;;;22.80;16.00;;;;;;;6.49;53.88;104112.00;107148;1254;25318;-55
2024/01/30 03:05:36;;;;;;;20.50;14.90;;;;;;;6.50;53.82;104106.91;106436;1254;1003718;-52
2024/01/30 03:08:04;;;;;;;21.10;15.00;;;;;;;6.52;53.68;104108.69;107176;1260;25327;-53
2024/01/30 03:10:31;;;;;;;21.00;14.80;;;;;;;6.53;53.81;104108.91;106172;1259;1016404;-54
2024/01/30 03:12:58;;;;;;;24.20;16.30;;;;;;;6.53;53.63;104113.59;107129;1260;25332;-54
2024/01/30 03:15:26;;;;;;;23.00;15.80;;;;;;;6.53;53.61;104112.52;107025;1257;23897;-53
2024/01/30 03:17:53;;;;;;;22.70;15.90;;;;;;;6.53;53.78;104112.19;106384;1255;1003266;-54
2024/01/30 03:20:20;;;;;;;23.00;16.20;;;;;;;6.53;53.97;104113.40;106076;1266;1003075;-54
2024/01/30 03:22:48;;;;;;;22.30;15.40;;;;;;;6.54;53.74;104116.89;107083;1266;25318;-53
2024/01/30 03:25:15;;;;;;;20.30;14.50;;;;;;;6.54;53.87;104115.52;107036;1254;24388;-53
2024/01/30 03:27:42;;;;;;;18.90;14.70;;;;;;;6.55;53.78;104115.25;107085;1261;25424;-54
2024/01/30 03:30:10;;;;;;;21.10;15.90;;;;;;;6.56;53.83;104116.66;107099;1255;25322;-54
2024/01/30 03:32:37;;;;;;;22.90;16.00;;;;;;;6.57;53.79;104118.08;106419;1254;1002996;-53
2024/01/30 03:35:05;;;;;;;21.90;15.40;;;;;;;6.57;53.91;104117.55;107088;1254;25427;-54
2024/01/30 03:37:32;;;;;;;22.80;15.60;;;;;;;6.56;53.77;104115.61;107113;1253;25321;-54
2024/01/30 03:39:59;;;;;;;20.30;15.00;;;;;;;6.54;53.46;104117.25;107025;1254;25340;-54
2024/01/30 03:42:27;;;;;;;20.70;15.00;;;;;;;6.52;53.54;104118.34;106378;1254;1003594;-53
2024/01/30 03:44:54;;;;;;;21.40;15.60;;;;;;;6.52;53.65;104122.68;106329;1257;1002923;-53
2024/01/30 03:47:22;;;;;;;20.90;14.30;;;;;;;6.54;53.58;104120.37;107072;1267;25570;-54
2024/01/30 03:49:49;;;;;;;21.50;14.50;;;;;;;6.57;53.68;104122.73;106830;1256;25318;-54
2024/01/30 03:52:17;;;;;;;20.70;15.60;;;;;;;6.59;53.64;104124.39;106284;1257;1002768;-53
2024/01/30 03:54:45;;;;;;;19.70;14.90;;;;;;;6.62;53.75;104121.75;106901;1266;25343;-53
2024/01/30 03:57:12;;;;;;;20.00;14.50;;;;;;;6.65;53.78;104124.15;107051;1270;25414;-53
2024/01/30 03:59:42;;;;;;;23.20;15.10;;;;;;;6.67;53.92;104128.55;107070;1263;25366;-54
2024/01/30 04:02:11;;;;;;;19.70;14.20;;;;;;;6.68;53.57;104126.88;106234;1269;1003519;-54
2024/01/30 04:04:38;;;;;;;22.30;14.40;;;;;;;6.71;53.92;104127.38;107177;1260;27216;-54
2024/01/30 04:07:06;;;;;;;21.10;14.50;;;;;;;6.74;53.89;104126.66;107121;1263;25328;-54
2024/01/30 04:09:33;;;;;;;19.10;13.10;;;;;;;6.77;53.75;104130.75;105822;1257;1002974;-53
2024/01/30 04:12:02;;;;;;;20.50;15.10;;;;;;;6.79;53.64;104128.96;106884;1267;25478;-54
2024/01/30 04:14:30;;;;;;;21.00;15.10;;;;;;;6.80;53.65;104124.88;106356;1254;1003176;-54
2024/01/30 04:16:57;;;;;;;18.70;13.00;;;;;;;6.80;53.48;104125.20;106877;1256;25322;-54
2024/01/30 04:19:24;;;;;;;21.90;14.60;;;;;;;6.81;53.57;104123.85;106381;1256;1002914;-53
2024/01/30 04:21:51;;;;;;;20.10;14.30;;;;;;;6.82;53.73;104121.16;107202;1251;25481;-53
2024/01/30 04:24:18;;;;;;;19.70;14.90;;;;;;;6.88;53.76;104123.88;106902;1269;25362;-52
2024/01/30 04:26:45;;;;;;;24.20;15.80;;;;;;;6.92;53.72;104120.08;107067;1263;25350;-53
2024/01/30 04:29:12;;;;;;;25.30;15.20;;;;;;;6.95;53.46;104124.69;106092;1269;1002962;-53
2024/01/30 04:31:40;;;;;;;20.80;14.70;;;;;;;6.96;53.48;104127.15;107133;1256;25347;-53
2024/01/30 04:34:07;;;;;;;20.60;15.40;;;;;;;6.96;53.32;104126.30;107112;1263;25378;-53
2024/01/30 04:36:34;;;;;;;20.30;14.10;;;;;;;6.97;53.56;104125.31;106295;1254;1003616;-53
2024/01/30 04:39:01;;;;;;;20.60;14.10;;;;;;;6.99;53.51;104125.92;107095;1254;25478;-54
2024/01/30 04:41:31;;;;;;;23.00;14.80;;;;;;;6.99;53.24;104127.84;107112;1250;22648;-55
2024/01/30 04:43:58;;;;;;;19.60;14.40;;;;;;;6.97;53.41;104125.82;107140;1251;25443;-54
2024/01/30 04:46:25;;;;;;;19.60;14.20;;;;;;;6.94;53.35;104123.82;106443;1254;1003730;-53
2024/01/30 04:48:52;;;;;;;21.00;14.70;;;;;;;6.92;53.31;104126.14;107141;1263;25331;-53
2024/01/30 04:51:20;;;;;;;20.60;15.10;;;;;;;6.90;53.46;104134.65;107122;1255;25408;-54
2024/01/30 04:53:47;;;;;;;17.50;13.20;;;;;;;6.88;53.60;104137.67;106848;1257;25325;-53
2024/01/30 04:56:14;;;;;;;21.40;14.40;;;;;;;6.89;53.69;104132.73;106871;1263;25369;-55
2024/01/30 04:58:41;;;;;;;19.50;14.70;;;;;;;6.92;53.71;104138.52;107097;1257;25363;-54
2024/01/30 05:01:08;;;;;;;18.50;13.50;;;;;;;6.93;53.46;104142.92;106129;1260;1003768;-53
2024/01/30 05:03:35;;;;;;;19.30;13.20;;;;;;;6.95;53.60;104142.66;107182;1254;25410;-53
2024/01/30 05:06:02;;;;;;;18.70;13.40;;;;;;;6.96;53.38;104145.32;107073;1252;25444;-54
2024/01/30 05:08:31;;;;;;;21.50;14.30;;;;;;;6.97;53.45;104147.60;107079;1257;25484;-54
2024/01/30 05:11:03;;;;;;;19.90;13.60;;;;;;;7.00;53.30;104145.99;106849;1273;25353;-54
2024/01/30 05:13:31;;;;;;;18.60;13.20;;;;;;;7.03;53.18;104145.79;107124;1257;25509;-53
2024/01/30 05:15:58;;;;;;;20.80;13.10;;;;;;;7.03;53.13;104147.52;107168;1254;25322;-54
2024/01/30 05:18:25;;;;;;;18.90;13.10;;;;;;;7.03;53.23;104147.52;106041;1267;1003111;-53
2024/01/30 05:20:53;;;;;;;19.10;13.10;;;;;;;7.06;53.10;104148.00;107131;1263;25347;-53
2024/01/30 05:23:20;;;;;;;17.50;12.60;;;;;;;7.06;52.99;104148.52;107064;1257;25469;-54
2024/01/30 05:25:47;;;;;;;17.20;12.70;;;;;;;7.05;52.93;104153.33;107092;1254;25408;-53
2024/01/30 05:28:14;;;;;;;16.20;12.30;;;;;;;7.04;52.99;104154.46;107123;1251;25330;-54
2024/01/30 05:30:41;;;;;;;19.00;13.70;;;;;;;7.02;52.95;104156.98;107158;1256;25338;-54
2024/01/30 05:33:09;;;;;;;21.70;13.70;;;;;;;7.01;52.94;104156.42;106401;1254;1016129;-54
2024/01/30 05:35:36;;;;;;;20.20;13.80;;;;;;;7.02;53.16;104156.27;107132;1250;25331;-53
2024/01/30 05:38:04;;;;;;;18.00;13.90;;;;;;;7.02;53.02;104154.23;107083;1257;25472;-54
2024/01/30 05:40:31;;;;;;;19.80;14.20;;;;;;;7.03;52.99;104150.14;106817;1260;25327;-54
2024/01/30 05:43:02;;;;;;;20.60;14.50;;;;;;;7.07;53.16;104153.09;106782;1269;25359;-53
2024/01/30 05:45:29;;;;;;;20.50;13.80;;;;;;;7.11;52.81;104155.33;107096;1254;25341;-54
2024/01/30 05:47:56;;;;;;;16.30;12.20;;;;;;;7.14;52.74;104156.34;107134;1254;25337;-53
2024/01/30 05:50:25;;;;;;;18.20;13.40;;;;;;;7.14;52.90;104154.93;107118;1251;25401;-55
2024/01/30 05:52:52;;;;;;;16.70;12.30;;;;;;;7.15;52.67;104154.83;107117;1254;25360;-54
2024/01/30 05:55:20;;;;;;;18.20;13.80;;;;;;;7.13;52.61;104157.70;107156;1254;25328;-54
2024/01/30 05:57:48;;;;;;;19.30;13.50;;;;;;;7.11;52.75;104159.85;107129;1257;25398;-54
2024/01/30 06:00:16;;;;;;;20.80;13.90;;;;;;;7.10;52.72;104159.95;106125;1257;1003270;-54
2024/01/30 06:02:42;;;;;;;20.00;13.30;;;;;;;7.08;52.55;104156.23;106951;1263;23868;-53
2024/01/30 06:05:09;;;;;;;20.20;13.10;;;;;;;7.05;52.77;104155.73;106475;1253;1003688;-55
2024/01/30 06:07:36;;;;;;;20.10;13.10;;;;;;;7.04;52.94;104154.48;107042;1250;25331;-52
2024/01/30 06:10:05;;;;;;;18.00;13.70;;;;;;;7.04;52.88;104153.47;106802;1256;25331;-55
2024/01/30 06:12:32;;;;;;;19.40;12.50;;;;;;;7.04;52.87;104152.05;107139;1257;24352;-54
2024/01/30 06:14:59;;;;;;;17.70;13.40;;;;;;;7.04;52.86;104159.14;106166;1256;1003086;-54
2024/01/30 06:17:27;;;;;;;17.80;12.60;;;;;;;7.04;53.11;104162.08;107095;1254;25453;-52
2024/01/30 06:19:56;;;;;;;19.80;12.80;;;;;;;7.05;53.00;104164.20;106339;1263;1003578;-54
2024/01/30 06:22:23;;;;;;;18.10;12.60;;;;;;;7.07;53.04;104159.65;107077;1263;25359;-54
2024/01/30 06:24:50;;;;;;;17.90;13.40;;;;;;;7.11;52.93;104157.58;107115;1251;25330;-54
2024/01/30 06:27:18;;;;;;;16.40;12.30;;;;;;;7.11;52.67;104157.94;107048;1260;25344;-54
2024/01/30 06:29:45;;;;;;;17.40;12.30;;;;;;;7.10;52.78;104161.88;106941;1270;25399;-54
2024/01/30 06:32:13;;;;;;;17.70;11.90;;;;;;;7.10;52.62;104158.06;107127;1254;23282;-55
2024/01/30 06:34:44;;;;;;;17.80;11.50;;;;;;;7.09;52.58;104159.02;106838;1269;25331;-53
2024/01/30 06:37:11;;;;;;;14.40;11.10;;;;;;;7.07;52.56;104159.47;106331;1266;1003686;-53
2024/01/30 06:39:38;;;;;;;16.30;11.40;;;;;;;7.09;52.58;104155.41;107053;1251;25376;-54
2024/01/30 06:42:05;;;;;;;18.90;12.60;;;;;;;7.09;52.36;104155.06;107216;1254;25321;-53
2024/01/30 06:44:32;;;;;;;16.80;11.90;;;;;;;7.06;52.47;104152.13;106805;1257;25481;-53
2024/01/30 06:47:00;;;;;;;17.30;12.40;;;;;;;7.06;52.52;104156.82;107142;1260;25349;-53
2024/01/30 06:49:27;;;;;;;18.60;12.70;;;;;;;7.05;52.43;104157.66;107119;1251;25399;-53
2024/01/30 06:51:54;;;;;;;14.90;11.70;;;;;;;7.08;52.45;104162.61;107059;1267;25359;-54
2024/01/30 06:54:21;;;;;;;15.90;12.30;;;;;;;7.10;52.34;104168.08;106315;1254;1003232;-53
2024/01/30 06:56:48;;;;;;;14.80;12.00;;;;;;;7.14;52.52;104170.34;106392;1261;1003808;-54
2024/01/30 06:59:15;;;;;;;16.80;11.70;;;;;;;7.17;52.13;104171.16;106878;1259;24326;-53
2024/01/30 07:01:42;;;;;;;14.80;11.80;;;;;;;7.18;51.99;104171.91;106445;1263;1003806;-54
2024/01/30 07:04:09;;;;;;;16.60;11.90;;;;;;;7.20;51.86;104173.19;107092;1256;25349;-54
2024/01/30 07:06:36;;;;;;;17.20;12.10;;;;;;;7.21;52.03;104179.63;107083;1254;25331;-55
2024/01/30 07:09:03;;;;;;;17.80;14.10;;;;;;;7.21;51.77;104179.64;106986;1260;25449;-54
2024/01/30 07:11:30;;;;;;;16.50;12.50;;;;;;;7.19;51.74;104182.13;106294;1254;1002872;-53
2024/01/30 07:13:57;;;;;;;16.80;12.10;;;;;;;7.18;51.84;104181.73;106957;1255;23864;-53
2024/01/30 07:16:24;;;;;;;23.30;14.80;;;;;;;7.18;51.84;104181.04;107010;1251;24228;-54
2024/01/30 07:18:51;;;;;;;27.20;17.90;;;;;;;7.22;51.82;104181.23;107031;1251;24185;-53
2024/01/30 07:21:21;;;;;;;22.60;15.60;;;;;;;7.23;51.67;104186.47;107036;1261;25340;-53
2024/01/30 07:23:48;;;;;;;22.20;15.40;;;;;;;7.23;51.59;104185.95;107034;1263;24276;-54
2024/01/30 07:26:16;;;;;;;17.90;13.50;;;;;;;7.22;51.54;104184.52;107091;1257;23909;-53
2024/01/30 07:28:43;;;;;;;17.80;13.90;;;;;;;7.25;51.42;104182.73;107108;1257;25356;-54
2024/01/30 07:31:10;;;;;;;19.50;14.50;;;;;;;7.23;51.45;104179.41;106836;1257;25332;-54
2024/01/30 07:33:38;;;;;;;19.60;14.70;;;;;;;7.19;51.23;104178.14;107161;1254;25388;-53
2024/01/30 07:36:06;;;;;;;17.30;13.00;;;;;;;7.15;51.41;104178.14;107113;1256;25535;-54
2024/01/30 07:38:33;;;;;;;19.60;13.70;;;;;;;7.12;51.15;104174.36;107150;1259;24269;-53
2024/01/30 07:41:00;;;;;;;18.20;13.20;;;;;;;7.10;51.20;104176.52;106906;1266;25471;-54
2024/01/30 07:43:27;;;;;;;16.20;12.70;;;;;;;7.10;51.13;104179.65;106445;1263;1003279;-53
2024/01/30 07:45:54;;;;;;;16.40;12.60;;;;;;;7.12;51.11;104177.15;107066;1256;25475;-53
2024/01/30 07:48:21;;;;;;;17.90;14.30;;;;;;;7.13;51.00;104174.09;106088;1267;1003709;-53
2024/01/30 07:50:48;;;;;;;18.50;13.70;;;;;;;7.15;50.99;104174.69;107169;1250;25405;-53
2024/01/30 07:53:15;;;;;;;18.40;13.90;;;;;;;7.15;50.98;104177.63;106753;1257;25322;-53
2024/01/30 07:55:46;;;;;;;16.40;12.60;;;;;;;7.15;50.95;104173.14;106385;1250;1002842;-53
2024/01/30 07:58:13;;;;;;;16.60;13.00;;;;;;;7.14;50.45;104173.41;106189;1269;1003163;-53
2024/01/30 08:00:41;;;;;;;19.40;13.50;;;;;;;7.12;50.63;104173.66;107100;1253;25328;-54
2024/01/30 08:03:08;;;;;;;20.00;14.70;;;;;;;7.13;50.57;104176.14;107088;1254;22681;-54
2024/01/30 08:05:35;;;;;;;19.20;14.50;;;;;;;7.14;50.62;104174.32;106733;1266;25338;-54
2024/01/30 08:08:03;;;;;;;21.40;15.30;;;;;;;7.19;50.65;104174.16;107171;1253;25408;-54
2024/01/30 08:10:30;;;;;;;19.80;14.70;;;;;;;7.21;50.54;104175.31;106186;1258;1002934;-53
2024/01/30 08:12:57;;;;;;;19.00;14.70;;;;;;;7.23;50.34;104180.42;107132;1266;25408;-53
2024/01/30 08:15:24;;;;;;;20.80;14.50;;;;;;;7.23;50.11;104177.98;106373;1250;1002826;-53
2024/01/30 08:17:55;;;;;;;20.50;14.30;;;;;;;7.21;50.19;104182.58;106352;1267;1003620;-54
2024/01/30 08:20:23;;;;;;;21.40;16.30;;;;;;;7.23;49.85;104185.42;107122;1274;25472;-54
2024/01/30 08:22:51;;;;;;;24.80;15.20;;;;;;;7.23;50.07;104188.73;107139;1250;22882;-54
2024/01/30 08:25:18;;;;;;;19.70;14.30;;;;;;;7.21;50.07;104187.08;107112;1263;25360;-54
2024/01/30 08:27:45;;;;;;;18.20;14.40;;;;;;;7.24;49.92;104189.09;106095;1258;1003782;-54
2024/01/30 08:30:13;;;;;;;20.80;15.60;;;;;;;7.30;49.70;104194.57;107125;1263;25331;-54
2024/01/30 08:32:40;;;;;;;20.60;15.00;;;;;;;7.34;49.51;104196.30;107081;1260;25359;-54
2024/01/30 08:35:08;;;;;;;20.20;14.40;;;;;;;7.31;49.35;104194.46;106800;1259;25443;-53
2024/01/30 08:37:36;;;;;;;19.00;14.10;;;;;;;7.25;49.15;104198.84;107143;1251;24365;-54
2024/01/30 08:40:04;;;;;;;20.00;15.80;;;;;;;7.20;49.39;104195.48;106739;1274;22533;-53
2024/01/30 08:42:33;;;;;;;20.40;14.90;;;;;;;7.17;49.49;104195.87;107150;1255;22630;-54
2024/01/30 08:45:00;;;;;;;21.90;15.10;;;;;;;7.17;49.44;104193.77;107148;1251;25471;-54
2024/01/30 08:47:27;;;;;;;21.40;15.80;;;;;;;7.17;49.65;104188.77;107094;1254;25346;-54
2024/01/30 08:49:54;;;;;;;23.50;16.30;;;;;;;7.17;49.54;104189.45;107119;1267;25346;-54
2024/01/30 08:52:21;;;;;;;23.20;15.90;;;;;;;7.15;49.58;104190.40;106300;1254;1003427;-54
2024/01/30 08:54:49;;;;;;;23.90;17.10;;;;;;;7.10;49.72;104200.00;107081;1263;25353;-54
2024/01/30 08:57:16;;;;;;;23.40;16.30;;;;;;;7.08;49.80;104203.35;106133;1267;1002900;-53
2024/01/30 08:59:45;;;;;;;22.90;16.50;;;;;;;7.05;49.72;104196.30;106260;1254;1002945;-54
2024/01/30 09:02:15;;;;;;;22.20;15.70;;;;;;;7.00;49.94;104199.52;107125;1260;25328;-54
2024/01/30 09:04:43;;;;;;;23.00;16.40;;;;;;;6.98;50.12;104198.05;107094;1266;22570;-53
2024/01/30 09:07:10;;;;;;;26.50;17.20;;;;;;;7.02;50.00;104197.71;107113;1258;25337;-53
2024/01/30 09:09:41;;;;;;;23.50;17.30;;;;;;;7.03;50.22;104191.02;106302;1269;1003420;-53
2024/01/30 09:12:11;;;;;;;26.90;18.90;;;;;;;7.06;50.23;104190.46;106931;1266;24208;-54
2024/01/30 09:14:39;;;;;;;24.90;16.70;;;;;;;7.06;50.19;104184.27;106857;1258;22563;-54
2024/01/30 09:17:06;;;;;;;25.50;16.90;;;;;;;7.08;49.99;104183.67;107141;1254;25334;-54
2024/01/30 09:19:33;;;;;;;25.20;17.50;;;;;;;7.08;50.14;104175.06;106834;1267;25456;-53
2024/01/30 09:22:01;;;;;;;25.20;17.80;;;;;;;7.09;50.23;104170.95;107229;1268;22611;-54
2024/01/30 09:24:28;;;;;;;22.80;17.30;;;;;;;7.03;50.25;104165.31;107135;1254;25423;-54
2024/01/30 09:26:55;;;;;;;25.60;16.60;;;;;;;6.92;50.18;104161.48;107081;1254;24258;-53
2024/01/30 09:29:22;;;;;;;24.90;18.60;;;;;;;6.78;50.34;104159.61;107133;1267;24262;-53
2024/01/30 09:31:49;;;;;;;25.70;18.10;;;;;;;6.65;50.41;104160.88;107060;1270;25350;-53
2024/01/30 09:34:17;;;;;;;24.20;18.20;;;;;;;6.57;50.92;104152.41;107098;1267;25472;-53
2024/01/30 09:36:44;;;;;;;29.70;20.40;;;;;;;6.60;51.17;104151.86;106190;1269;1003575;-53
2024/01/30 09:39:12;;;;;;;25.80;18.00;;;;;;;6.68;51.35;104148.27;107105;1270;25349;-53
2024/01/30 09:41:59;;;;;;;23.90;17.20;;;;;;;6.75;51.38;104143.45;107116;1266;25321;-53
2024/01/30 09:44:26;;;;;;;27.10;17.60;;;;;;;6.84;51.34;104141.46;106354;1278;23943;-54
2024/01/30 09:46:53;;;;;;;22.60;15.90;;;;;;;6.87;51.13;104135.55;106357;1280;25472;-53
2024/01/30 09:49:21;;;;;;;29.20;21.80;;;;;;;6.88;50.96;104134.23;106657;1262;25619;-53
2024/01/30 09:51:48;;;;;;;29.90;20.20;;;;;;;6.94;50.93;104134.15;106637;1262;25409;-53
2024/01/30 09:54:15;;;;;;;25.90;18.50;;;;;;;7.04;51.02;104130.33;106692;1281;25452;-54
2024/01/30 09:56:42;;;;;;;25.90;18.70;;;;;;;7.12;50.69;104125.02;106423;1273;25350;-54
2024/01/30 09:59:10;;;;;;;24.30;17.20;;;;;;;7.21;50.71;104117.30;106584;1281;25417;-54
2024/01/30 10:01:39;;;;;;;27.60;18.70;;;;;;;7.23;50.14;104114.45;106751;1260;25536;-53
2024/01/30 10:04:06;;;;;;;25.00;17.40;;;;;;;7.10;50.05;104110.55;106483;1278;25521;-53
2024/01/30 10:06:33;;;;;;;28.30;18.50;;;;;;;7.00;50.17;104107.69;106486;1279;25492;-53
2024/01/30 10:09:00;;;;;;;28.10;19.40;;;;;;;6.86;50.26;104101.33;105844;1267;1003819;-53
2024/01/30 10:11:27;;;;;;;28.10;19.50;;;;;;;6.70;50.42;104101.08;106378;1277;25463;-53
2024/01/30 10:13:55;;;;;;;33.30;19.30;;;;;;;6.60;50.99;104103.73;106763;1278;25456;-53
2024/01/30 10:16:22;;;;;;;32.70;22.70;;;;;;;6.55;51.05;104097.63;106464;1276;22549;-53
2024/01/30 10:18:49;;;;;;;33.30;21.50;;;;;;;6.48;51.48;104098.15;106620;1262;25504;-53
2024/01/30 10:21:16;;;;;;;28.30;19.10;;;;;;;6.43;51.62;104098.42;106467;1273;26625;-54
2024/01/30 10:23:47;;;;;;;33.90;21.30;;;;;;;6.38;51.95;104100.05;107001;1272;23239;-54
2024/01/30 10:26:17;;;;;;;31.60;21.10;;;;;;;6.36;52.23;104099.80;106314;1270;1003047;-52
2024/01/30 10:28:44;;;;;;;30.90;20.40;;;;;;;6.34;52.18;104098.66;106817;1272;25322;-53
2024/01/30 10:31:11;;;;;;;30.00;19.30;;;;;;;6.32;52.45;104098.42;106870;1270;25343;-53
2024/01/30 10:33:38;;;;;;;30.50;19.80;;;;;;;6.35;52.55;104094.26;105834;1270;1003351;-53
2024/01/30 10:36:06;;;;;;;31.30;20.10;;;;;;;6.39;52.58;104090.82;106593;1270;22763;-53
2024/01/30 10:38:34;;;;;;;30.50;19.40;;;;;;;6.51;52.72;104088.83;106782;1273;24076;-54
2024/01/30 10:41:01;;;;;;;29.00;19.20;;;;;;;6.61;52.40;104087.20;106277;1273;1004008;-54
2024/01/30 10:43:35;;;;;;;27.50;18.10;;;;;;;6.64;52.32;104086.46;107109;1267;25340;-53
2024/01/30 10:46:19;;;;;;;27.40;17.90;;;;;;;6.63;52.06;104084.17;107192;1266;24350;-53
2024/01/30 10:48:55;;;;;;;29.40;18.40;;;;;;;6.63;52.03;104088.48;106205;1274;1003318;-54
2024/01/30 10:51:22;;;;;;;30.50;19.30;;;;;;;6.62;51.97;104085.50;107099;1266;25279;-53
2024/01/30 10:53:50;;;;;;;31.10;18.60;;;;;;;6.66;52.12;104078.49;107187;1266;22782;-53
2024/01/30 10:56:17;;;;;;;25.60;16.80;;;;;;;6.73;52.02;104080.87;107119;1270;22652;-53
2024/01/30 10:58:46;;;;;;;31.80;20.50;;;;;;;6.76;51.85;104076.35;107100;1266;23933;-53
2024/01/30 11:01:15;;;;;;;28.60;19.40;;;;;;;6.71;51.80;104075.42;106994;1272;22523;-52
2024/01/30 11:03:42;;;;;;;29.60;18.90;;;;;;;6.63;51.90;104074.87;107058;1267;25328;-54
2024/01/30 11:06:18;;;;;;;36.60;23.40;;;;;;;6.58;52.11;104073.96;106018;1275;1003330;-53